createdAt,value
2018-09-29T00:02:01.421Z,95097.61
2018-09-29T00:04:27.833Z,95097.28
2018-09-29T00:06:54.190Z,95094.83
2018-09-29T00:09:20.650Z,95089.20
2018-09-29T00:11:46.989Z,95092.68
2018-09-29T00:14:13.495Z,95085.48
2018-09-29T00:16:39.895Z,95089.86
2018-09-29T00:19:06.275Z,95088.62
2018-09-29T00:21:33.173Z,95088.66
2018-09-29T00:23:59.501Z,95077.73
2018-09-29T00:26:25.851Z,95074.34
2018-09-29T00:28:52.221Z,95067.06
2018-09-29T00:31:18.572Z,95067.53
2018-09-29T00:33:44.961Z,95065.50
2018-09-29T00:36:11.360Z,95059.12
2018-09-29T00:38:37.786Z,95050.66
2018-09-29T00:41:04.133Z,95052.51
2018-09-29T00:43:30.480Z,95047.01
2018-09-29T00:45:56.884Z,95044.98
2018-09-29T00:48:23.269Z,95040.34
2018-09-29T00:50:49.605Z,95047.20
2018-09-29T00:53:16.000Z,95042.45
2018-09-29T00:55:42.434Z,95049.52
2018-09-29T00:58:08.783Z,95037.20
2018-09-29T01:00:35.114Z,95039.22
2018-09-29T01:03:01.437Z,95039.37
2018-09-29T01:05:27.765Z,95046.78
2018-09-29T01:07:54.110Z,95049.46
2018-09-29T01:10:20.455Z,95051.20
2018-09-29T01:12:46.829Z,95041.81
2018-09-29T01:15:13.155Z,95042.59
2018-09-29T01:17:39.479Z,95043.92
2018-09-29T01:20:05.809Z,95040.16
2018-09-29T01:22:32.145Z,95036.44
2018-09-29T01:24:58.576Z,95038.58
2018-09-29T01:27:24.975Z,95035.61
2018-09-29T01:29:51.472Z,95028.78
2018-09-29T01:32:17.816Z,95033.54
2018-09-29T01:34:44.139Z,95023.70
2018-09-29T01:37:10.483Z,95022.00
2018-09-29T01:39:36.837Z,95021.70
2018-09-29T01:42:03.185Z,95027.33
2018-09-29T01:44:29.525Z,95023.86
2018-09-29T01:46:55.875Z,95027.86
2018-09-29T01:49:22.200Z,95028.16
2018-09-29T01:51:48.552Z,95031.30
2018-09-29T01:54:14.884Z,95032.16
2018-09-29T01:56:41.208Z,95038.20
2018-09-29T01:59:07.604Z,95031.03
2018-09-29T02:01:33.973Z,95031.91
2018-09-29T02:04:00.344Z,95029.84
2018-09-29T02:06:26.738Z,95028.47
2018-09-29T02:08:53.087Z,95026.36
2018-09-29T02:11:19.440Z,95029.84
2018-09-29T02:13:45.830Z,95028.06
2018-09-29T02:16:12.169Z,95022.64
2018-09-29T02:18:38.512Z,95014.74
2018-09-29T02:21:04.837Z,95025.70
2018-09-29T02:23:31.179Z,95031.77
2018-09-29T02:25:57.570Z,95026.19
2018-09-29T02:28:23.903Z,95031.81
2018-09-29T02:30:50.278Z,95028.42
2018-09-29T02:33:16.613Z,95035.77
2018-09-29T02:35:43.009Z,95034.04
2018-09-29T02:38:09.384Z,95037.39
2018-09-29T02:40:35.768Z,95037.09
2018-09-29T02:43:02.200Z,95031.47
2018-09-29T02:45:28.537Z,95025.56
2018-09-29T02:47:54.967Z,95023.41
2018-09-29T02:50:21.341Z,95023.83
2018-09-29T02:52:47.729Z,95010.59
2018-09-29T02:55:14.099Z,95016.75
2018-09-29T02:57:40.482Z,95017.92
2018-09-29T03:00:06.988Z,95013.86
2018-09-29T03:02:33.361Z,95005.72
2018-09-29T03:04:59.905Z,95004.84
2018-09-29T03:07:26.295Z,95007.52
2018-09-29T03:09:52.676Z,95007.11
2018-09-29T03:12:19.053Z,95003.27
2018-09-29T03:14:45.454Z,94995.63
2018-09-29T03:17:11.814Z,95007.61
2018-09-29T03:19:38.211Z,95009.80
2018-09-29T03:22:04.593Z,95002.03
2018-09-29T03:24:31.003Z,95004.83
2018-09-29T03:26:57.386Z,95005.95
2018-09-29T03:29:23.728Z,94992.44
2018-09-29T03:31:50.223Z,94988.59
2018-09-29T03:34:16.464Z,94985.24
2018-09-29T03:36:42.836Z,94990.74
2018-09-29T03:39:09.194Z,94992.52
2018-09-29T03:41:35.536Z,94994.28
2018-09-29T03:44:01.929Z,94997.30
2018-09-29T03:46:28.261Z,95000.32
2018-09-29T03:48:54.663Z,94999.98
2018-09-29T03:51:20.994Z,94997.58
2018-09-29T03:53:47.367Z,95005.11
2018-09-29T03:56:13.742Z,95008.95
2018-09-29T03:58:40.128Z,95009.94
2018-09-29T04:01:06.473Z,95008.29
2018-09-29T04:03:32.855Z,95014.20
2018-09-29T04:05:59.272Z,95003.69
2018-09-29T04:08:25.609Z,95002.83
2018-09-29T04:10:51.976Z,95006.75
2018-09-29T04:13:18.368Z,95005.17
2018-09-29T04:15:44.701Z,95000.39
2018-09-29T04:18:11.160Z,94998.34
2018-09-29T04:20:37.499Z,95000.05
2018-09-29T04:23:03.883Z,94997.07
2018-09-29T04:25:30.213Z,94994.55
2018-09-29T04:27:56.572Z,94989.84
2018-09-29T04:30:22.979Z,94996.74
2018-09-29T04:32:49.333Z,94995.98
2018-09-29T04:35:15.731Z,95003.87
2018-09-29T04:37:42.130Z,94999.08
2018-09-29T04:40:08.521Z,94993.05
2018-09-29T04:42:34.918Z,94991.40
2018-09-29T04:45:01.298Z,94999.08
2018-09-29T04:47:27.713Z,94996.22
2018-09-29T04:49:54.109Z,94998.88
2018-09-29T04:52:20.500Z,95000.56
2018-09-29T04:54:46.865Z,94997.13
2018-09-29T04:57:13.239Z,95000.15
2018-09-29T04:59:39.648Z,95002.63
2018-09-29T05:02:06.047Z,95008.19
2018-09-29T05:04:32.451Z,94998.23
2018-09-29T05:06:58.783Z,94994.77
2018-09-29T05:09:25.181Z,94999.10
2018-09-29T05:11:51.581Z,94997.90
2018-09-29T05:14:17.951Z,94999.67
2018-09-29T05:16:44.344Z,95000.45
2018-09-29T05:19:10.674Z,94998.77
2018-09-29T05:21:37.009Z,94995.06
2018-09-29T05:24:03.410Z,95001.42
2018-09-29T05:26:29.821Z,95000.97
2018-09-29T05:28:56.174Z,95008.87
2018-09-29T05:31:22.527Z,95012.44
2018-09-29T05:33:48.917Z,95013.77
2018-09-29T05:36:15.326Z,95008.69
2018-09-29T05:38:41.712Z,95009.36
2018-09-29T05:41:08.088Z,95012.30
2018-09-29T05:43:34.584Z,95009.13
2018-09-29T05:46:00.921Z,95011.44
2018-09-29T05:48:27.251Z,95012.16
2018-09-29T05:50:53.726Z,95010.84
2018-09-29T05:53:20.100Z,95016.97
2018-09-29T05:55:46.432Z,95014.86
2018-09-29T05:58:12.889Z,95012.72
2018-09-29T06:00:39.364Z,95015.53
2018-09-29T06:03:05.640Z,95015.78
2018-09-29T06:05:32.098Z,95020.75
2018-09-29T06:07:58.415Z,95019.67
2018-09-29T06:10:24.778Z,95022.86
2018-09-29T06:12:51.124Z,95026.16
2018-09-29T06:15:17.507Z,95030.26
2018-09-29T06:17:43.916Z,95035.34
2018-09-29T06:20:10.271Z,95032.25
2018-09-29T06:22:36.700Z,95037.84
2018-09-29T06:25:03.056Z,95031.30
2018-09-29T06:27:29.424Z,95037.30
2018-09-29T06:29:55.781Z,95038.62
2018-09-29T06:32:22.201Z,95039.45
2018-09-29T06:34:48.593Z,95040.73
2018-09-29T06:37:14.968Z,95042.47
2018-09-29T06:39:41.319Z,95047.19
2018-09-29T06:42:07.701Z,95049.33
2018-09-29T06:44:34.102Z,95049.33
2018-09-29T06:47:00.503Z,95048.88
2018-09-29T06:49:26.836Z,95048.17
2018-09-29T06:51:53.264Z,95053.68
2018-09-29T06:54:19.736Z,95047.64
2018-09-29T06:56:46.100Z,95052.47
2018-09-29T06:59:12.508Z,95048.92
2018-09-29T07:01:38.839Z,95048.05
2018-09-29T07:04:05.157Z,95052.36
2018-09-29T07:06:31.576Z,95052.27
2018-09-29T07:08:57.917Z,95054.09
2018-09-29T07:11:24.328Z,95056.16
2018-09-29T07:13:50.660Z,95050.16
2018-09-29T07:16:17.023Z,95048.34
2018-09-29T07:18:43.424Z,95051.66
2018-09-29T07:21:09.752Z,95056.73
2018-09-29T07:23:36.137Z,95051.45
2018-09-29T07:26:02.477Z,95051.00
2018-09-29T07:28:28.825Z,95050.42
2018-09-29T07:30:55.245Z,95051.62
2018-09-29T07:33:21.608Z,95056.58
2018-09-29T07:35:47.972Z,95058.86
2018-09-29T07:38:14.399Z,95067.52
2018-09-29T07:40:40.868Z,95063.91
2018-09-29T07:43:07.208Z,95071.36
2018-09-29T07:45:33.572Z,95066.97
2018-09-29T07:47:59.949Z,95068.05
2018-09-29T07:50:26.322Z,95067.56
2018-09-29T07:52:52.649Z,95064.75
2018-09-29T07:55:19.023Z,95067.73
2018-09-29T07:57:45.452Z,95060.85
2018-09-29T08:00:11.882Z,95064.61
2018-09-29T08:02:38.310Z,95067.11
2018-09-29T08:05:04.664Z,95069.17
2018-09-29T08:07:31.015Z,95069.63
2018-09-29T08:09:57.422Z,95058.41
2018-09-29T08:12:23.784Z,95057.58
2018-09-29T08:14:50.158Z,95050.22
2018-09-29T08:17:16.544Z,95054.48
2018-09-29T08:19:42.940Z,95047.98
2018-09-29T08:22:09.333Z,95048.39
2018-09-29T08:24:35.794Z,95041.03
2018-09-29T08:27:02.226Z,95041.56
2018-09-29T08:29:28.580Z,95039.66
2018-09-29T08:31:54.947Z,95040.07
2018-09-29T08:34:21.344Z,95039.91
2018-09-29T08:36:47.735Z,95041.05
2018-09-29T08:39:14.154Z,95035.84
2018-09-29T08:41:40.520Z,95033.64
2018-09-29T08:44:06.873Z,95024.62
2018-09-29T08:46:33.225Z,95020.36
2018-09-29T08:48:59.714Z,95020.64
2018-09-29T08:51:26.068Z,95019.73
2018-09-29T08:53:52.423Z,95019.56
2018-09-29T08:56:18.774Z,95017.82
2018-09-29T08:58:45.173Z,95019.48
2018-09-29T09:01:11.592Z,95016.78
2018-09-29T09:03:37.955Z,95015.00
2018-09-29T09:06:04.321Z,95014.17
2018-09-29T09:08:30.724Z,95008.08
2018-09-29T09:10:57.096Z,95005.97
2018-09-29T09:13:23.424Z,95005.84
2018-09-29T09:15:49.855Z,95009.70
2018-09-29T09:18:16.252Z,95001.49
2018-09-29T09:20:42.648Z,95005.59
2018-09-29T09:23:09.105Z,95002.61
2018-09-29T09:25:35.449Z,95003.80
2018-09-29T09:28:01.943Z,95007.16
2018-09-29T09:30:28.376Z,95008.40
2018-09-29T09:32:54.813Z,95013.03
2018-09-29T09:35:21.214Z,95013.78
2018-09-29T09:37:47.540Z,95011.29
2018-09-29T09:40:13.914Z,95013.64
2018-09-29T09:42:40.300Z,95008.09
2018-09-29T09:45:06.634Z,95000.85
2018-09-29T09:47:33.033Z,95004.94
2018-09-29T09:49:59.381Z,95004.48
2018-09-29T09:52:25.797Z,95008.73
2018-09-29T09:54:52.129Z,95002.61
2018-09-29T09:57:18.485Z,95004.26
2018-09-29T09:59:44.819Z,95005.50
2018-09-29T10:02:11.184Z,95001.98
2018-09-29T10:04:37.516Z,95007.95
2018-09-29T10:07:03.881Z,94997.62
2018-09-29T10:09:30.245Z,94995.84
2018-09-29T10:11:56.713Z,94998.33
2018-09-29T10:14:23.167Z,94993.84
2018-09-29T10:16:49.509Z,94993.75
2018-09-29T10:19:15.905Z,94989.81
2018-09-29T10:21:42.246Z,94984.38
2018-09-29T10:24:08.640Z,94985.94
2018-09-29T10:26:35.046Z,94981.09
2018-09-29T10:29:01.428Z,94981.38
2018-09-29T10:31:27.882Z,94983.34
2018-09-29T10:33:54.234Z,94972.58
2018-09-29T10:36:20.648Z,94970.01
2018-09-29T10:38:46.995Z,94967.70
2018-09-29T10:41:13.427Z,94956.48
2018-09-29T10:43:40.138Z,94964.05
2018-09-29T10:46:06.544Z,94965.20
2018-09-29T10:48:32.901Z,94959.20
2018-09-29T10:50:59.313Z,94962.00
2018-09-29T10:53:25.664Z,94958.56
2018-09-29T10:55:52.001Z,94952.92
2018-09-29T10:58:18.549Z,94954.48
2018-09-29T11:00:44.917Z,94951.92
2018-09-29T11:03:11.267Z,94948.71
2018-09-29T11:05:37.629Z,94945.64
2018-09-29T11:08:03.959Z,94946.41
2018-09-29T11:10:30.495Z,94943.67
2018-09-29T11:12:56.957Z,94937.20
2018-09-29T11:15:23.349Z,94938.36
2018-09-29T11:17:49.749Z,94929.90
2018-09-29T11:20:16.101Z,94927.98
2018-09-29T11:22:42.617Z,94925.41
2018-09-29T11:25:08.957Z,94926.64
2018-09-29T11:27:35.340Z,94923.03
2018-09-29T11:30:01.921Z,94923.03
2018-09-29T11:32:28.250Z,94918.70
2018-09-29T11:34:54.583Z,94916.55
2018-09-29T11:37:20.998Z,94916.47
2018-09-29T11:39:47.416Z,94911.28
2018-09-29T11:42:13.816Z,94905.50
2018-09-29T11:44:40.204Z,94900.49
2018-09-29T11:47:06.637Z,94902.79
2018-09-29T11:49:33.009Z,94894.84
2018-09-29T11:51:59.424Z,94889.86
2018-09-29T11:54:25.748Z,94892.02
2018-09-29T11:56:52.096Z,94894.13
2018-09-29T11:59:18.428Z,94892.74
2018-09-29T12:01:44.844Z,94897.83
2018-09-29T12:04:11.204Z,94895.36
2018-09-29T12:06:37.605Z,94897.88
2018-09-29T12:09:03.948Z,94902.38
2018-09-29T12:11:30.328Z,94904.45
2018-09-29T12:13:57.001Z,94906.06
2018-09-29T12:16:23.322Z,94900.63
2018-09-29T12:18:49.665Z,94899.30
2018-09-29T12:21:16.010Z,94892.38
2018-09-29T12:23:42.377Z,94887.61
2018-09-29T12:26:08.714Z,94888.02
2018-09-29T12:28:35.139Z,94887.02
2018-09-29T12:31:01.493Z,94887.97
2018-09-29T12:33:27.864Z,94893.39
2018-09-29T12:35:54.217Z,94888.70
2018-09-29T12:38:20.634Z,94889.44
2018-09-29T12:40:47.023Z,94893.21
2018-09-29T12:43:13.381Z,94893.14
2018-09-29T12:45:39.803Z,94900.40
2018-09-29T12:48:06.161Z,94902.92
2018-09-29T12:50:32.549Z,94892.96
2018-09-29T12:52:58.895Z,94893.79
2018-09-29T12:55:25.288Z,94889.11
2018-09-29T12:57:51.637Z,94892.41
2018-09-29T13:00:18.050Z,94884.74
2018-09-29T13:02:44.405Z,94894.02
2018-09-29T13:05:10.865Z,94890.58
2018-09-29T13:07:37.178Z,94880.29
2018-09-29T13:10:03.518Z,94884.74
2018-09-29T13:12:29.896Z,94882.45
2018-09-29T13:14:56.390Z,94879.83
2018-09-29T13:17:22.713Z,94876.34
2018-09-29T13:19:49.081Z,94870.01
2018-09-29T13:22:15.540Z,94876.70
2018-09-29T13:24:42.089Z,94868.98
2018-09-29T13:27:08.465Z,94871.19
2018-09-29T13:29:34.837Z,94870.73
2018-09-29T13:32:01.332Z,94868.16
2018-09-29T13:34:27.716Z,94873.22
2018-09-29T13:36:54.107Z,94877.08
2018-09-29T13:39:20.455Z,94871.84
2018-09-29T13:41:46.784Z,94870.55
2018-09-29T13:44:13.163Z,94870.87
2018-09-29T13:46:39.506Z,94873.35
2018-09-29T13:49:05.911Z,94870.01
2018-09-29T13:51:32.256Z,94865.22
2018-09-29T13:53:58.650Z,94863.58
2018-09-29T13:56:25.003Z,94872.70
2018-09-29T13:58:51.340Z,94863.58
2018-09-29T14:01:17.664Z,94869.19
2018-09-29T14:03:44.082Z,94870.87
2018-09-29T14:06:10.426Z,94874.50
2018-09-29T14:08:36.857Z,94873.17
2018-09-29T14:11:03.132Z,94881.76
2018-09-29T14:13:29.460Z,94883.50
2018-09-29T14:15:55.902Z,94878.00
2018-09-29T14:18:22.252Z,94883.55
2018-09-29T14:20:48.608Z,94882.17
2018-09-29T14:23:14.948Z,94891.34
2018-09-29T14:25:41.309Z,94890.06
2018-09-29T14:28:07.811Z,94883.09
2018-09-29T14:30:34.350Z,94884.74
2018-09-29T14:33:00.707Z,94887.41
2018-09-29T14:35:27.102Z,94889.19
2018-09-29T14:37:53.437Z,94894.97
2018-09-29T14:40:19.768Z,94898.56
2018-09-29T14:42:46.128Z,94897.28
2018-09-29T14:45:12.536Z,94904.62
2018-09-29T14:47:39.038Z,94905.91
2018-09-29T14:50:05.370Z,94907.47
2018-09-29T14:52:31.702Z,94908.84
2018-09-29T14:54:58.054Z,94913.66
2018-09-29T14:57:24.424Z,94916.38
2018-09-29T14:59:50.816Z,94923.03
2018-09-29T15:02:17.157Z,94929.05
2018-09-29T15:04:43.497Z,94926.47
2018-09-29T15:07:09.868Z,94929.45
2018-09-29T15:09:36.200Z,94931.25
2018-09-29T15:12:02.637Z,94929.92
2018-09-29T15:14:28.993Z,94936.86
2018-09-29T15:16:55.341Z,94937.39
2018-09-29T15:19:21.680Z,94943.00
2018-09-29T15:21:48.038Z,94939.19
2018-09-29T15:24:14.382Z,94949.43
2018-09-29T15:26:40.734Z,94951.22
2018-09-29T15:29:07.121Z,94952.51
2018-09-29T15:31:33.739Z,94953.38
2018-09-29T15:34:00.080Z,94957.78
2018-09-29T15:36:26.416Z,94959.06
2018-09-29T15:38:52.748Z,94956.91
2018-09-29T15:41:19.094Z,94961.34
2018-09-29T15:43:45.452Z,94964.81
2018-09-29T15:46:11.781Z,94969.13
2018-09-29T15:48:38.181Z,94975.84
2018-09-29T15:51:04.518Z,94975.09
2018-09-29T15:53:30.867Z,94971.34
2018-09-29T15:55:57.209Z,94974.32
2018-09-29T15:58:23.540Z,94980.97
2018-09-29T16:00:49.879Z,94986.06
2018-09-29T16:03:16.216Z,94984.52
2018-09-29T16:05:42.673Z,94986.63
2018-09-29T16:08:09.100Z,94982.48
2018-09-29T16:10:35.496Z,94987.16
2018-09-29T16:13:01.904Z,94991.52
2018-09-29T16:15:28.427Z,94994.69
2018-09-29T16:17:54.761Z,95000.11
2018-09-29T16:20:21.169Z,95006.58
2018-09-29T16:22:47.531Z,95008.87
2018-09-29T16:25:13.955Z,95008.50
2018-09-29T16:27:40.336Z,95009.55
2018-09-29T16:30:06.732Z,95014.19
2018-09-29T16:32:33.415Z,95015.20
2018-09-29T16:34:59.959Z,95023.69
2018-09-29T16:37:26.496Z,95027.17
2018-09-29T16:39:52.840Z,95025.19
2018-09-29T16:42:19.201Z,95031.67
2018-09-29T16:44:45.560Z,95034.65
2018-09-29T16:47:11.916Z,95037.73
2018-09-29T16:49:38.293Z,95038.31
2018-09-29T16:52:04.648Z,95046.14
2018-09-29T16:54:31.056Z,95047.84
2018-09-29T16:56:57.444Z,95047.43
2018-09-29T16:59:23.828Z,95046.66
2018-09-29T17:01:50.291Z,95056.33
2018-09-29T17:04:16.665Z,95055.45
2018-09-29T17:06:43.055Z,95056.33
2018-09-29T17:09:09.443Z,95056.83
2018-09-29T17:11:35.854Z,95072.01
2018-09-29T17:14:02.268Z,95077.27
2018-09-29T17:16:28.590Z,95074.50
2018-09-29T17:18:55.001Z,95076.87
2018-09-29T17:21:21.355Z,95079.32
2018-09-29T17:23:47.756Z,95079.73
2018-09-29T17:26:14.145Z,95082.02
2018-09-29T17:28:40.481Z,95085.00
2018-09-29T17:31:06.862Z,95087.24
2018-09-29T17:33:33.196Z,95084.14
2018-09-29T17:35:59.571Z,95087.88
2018-09-29T17:38:25.908Z,95089.11
2018-09-29T17:40:52.409Z,95091.48
2018-09-29T17:43:18.817Z,95101.09
2018-09-29T17:45:45.160Z,95099.55
2018-09-29T17:48:11.607Z,95099.91
2018-09-29T17:50:38.041Z,95105.45
2018-09-29T17:53:04.441Z,95110.09
2018-09-29T17:55:30.826Z,95123.14
2018-09-29T17:57:57.235Z,95127.41
2018-09-29T18:00:23.639Z,95132.47
2018-09-29T18:02:50.025Z,95135.50
2018-09-29T18:05:16.357Z,95142.55
2018-09-29T18:07:42.759Z,95147.77
2018-09-29T18:10:09.153Z,95150.67
2018-09-29T18:12:35.578Z,95154.56
2018-09-29T18:15:01.918Z,95164.13
2018-09-29T18:17:28.254Z,95168.86
2018-09-29T18:19:54.648Z,95170.60
2018-09-29T18:22:21.003Z,95173.91
2018-09-29T18:24:47.427Z,95178.27
2018-09-29T18:27:13.787Z,95176.41
2018-09-29T18:29:40.135Z,95180.95
2018-09-29T18:32:06.509Z,95184.48
2018-09-29T18:34:32.876Z,95187.62
2018-09-29T18:36:59.308Z,95194.09
2018-09-29T18:39:25.785Z,95196.20
2018-09-29T18:41:52.684Z,95197.64
2018-09-29T18:44:19.025Z,95194.17
2018-09-29T18:46:45.412Z,95198.23
2018-09-29T18:49:12.563Z,95203.37
2018-09-29T18:51:39.017Z,95208.05
2018-09-29T18:54:05.402Z,95210.73
2018-09-29T18:56:31.758Z,95209.13
2018-09-29T18:58:58.135Z,95215.66
2018-09-29T19:01:24.588Z,95213.56
2018-09-29T19:03:50.958Z,95223.41
2018-09-29T19:06:17.395Z,95224.33
2018-09-29T19:08:43.807Z,95224.19
2018-09-29T19:11:10.184Z,95227.97
2018-09-29T19:13:36.549Z,95231.11
2018-09-29T19:16:03.087Z,95232.81
2018-09-29T19:18:29.519Z,95234.51
2018-09-29T19:20:55.899Z,95237.94
2018-09-29T19:23:22.359Z,95247.22
2018-09-29T19:25:48.745Z,95247.09
2018-09-29T19:28:15.151Z,95249.19
2018-09-29T19:30:41.523Z,95243.33
2018-09-29T19:33:07.906Z,95247.33
2018-09-29T19:35:34.311Z,95249.69
2018-09-29T19:38:00.653Z,95243.77
2018-09-29T19:40:26.999Z,95247.36
2018-09-29T19:42:53.403Z,95252.04
2018-09-29T19:45:19.792Z,95251.38
2018-09-29T19:47:46.167Z,95254.23
2018-09-29T19:50:12.497Z,95253.99
2018-09-29T19:52:38.961Z,95257.39
2018-09-29T19:55:05.319Z,95259.56
2018-09-29T19:57:31.692Z,95264.92
2018-09-29T19:59:58.020Z,95273.03
2018-09-29T20:02:24.405Z,95268.47
2018-09-29T20:04:50.756Z,95265.11
2018-09-29T20:07:17.113Z,95262.30
2018-09-29T20:09:43.447Z,95270.41
2018-09-29T20:12:09.820Z,95269.20
2018-09-29T20:14:36.206Z,95268.70
2018-09-29T20:17:03.332Z,95273.52
2018-09-29T20:19:29.697Z,95274.41
2018-09-29T20:21:56.060Z,95274.13
2018-09-29T20:24:22.526Z,95271.14
2018-09-29T20:26:48.853Z,95272.78
2018-09-29T20:29:15.190Z,95268.98
2018-09-29T20:31:41.588Z,95272.16
2018-09-29T20:34:07.927Z,95279.87
2018-09-29T20:36:34.307Z,95276.55
2018-09-29T20:39:00.690Z,95275.95
2018-09-29T20:41:27.200Z,95279.87
2018-09-29T20:43:53.593Z,95280.93
2018-09-29T20:46:19.966Z,95282.87
2018-09-29T20:48:46.331Z,95282.83
2018-09-29T20:51:12.656Z,95287.92
2018-09-29T20:53:39.064Z,95283.06
2018-09-29T20:56:05.417Z,95287.85
2018-09-29T20:58:31.796Z,95288.39
2018-09-29T21:00:58.167Z,95288.53
2018-09-29T21:03:24.539Z,95280.28
2018-09-29T21:05:50.878Z,95279.98
2018-09-29T21:08:17.217Z,95284.80
2018-09-29T21:10:43.573Z,95285.86
2018-09-29T21:13:10.117Z,95283.63
2018-09-29T21:15:36.372Z,95283.37
2018-09-29T21:18:02.774Z,95277.91
2018-09-29T21:20:29.207Z,95283.71
2018-09-29T21:22:55.547Z,95286.70
2018-09-29T21:25:21.940Z,95282.17
2018-09-29T21:27:48.303Z,95288.48
2018-09-29T21:30:14.810Z,95277.92
2018-09-29T21:32:41.134Z,95274.03
2018-09-29T21:35:07.574Z,95277.27
2018-09-29T21:37:33.956Z,95290.41
2018-09-29T21:40:00.358Z,95279.99
2018-09-29T21:42:26.734Z,95280.14
2018-09-29T21:44:53.142Z,95282.64
2018-09-29T21:47:19.519Z,95283.66
2018-09-29T21:49:45.933Z,95287.43
2018-09-29T21:52:12.374Z,95289.66
2018-09-29T21:54:38.832Z,95283.77
2018-09-29T21:57:05.220Z,95279.36
2018-09-29T21:59:31.581Z,95283.32
2018-09-29T22:01:57.914Z,95281.94
2018-09-29T22:04:24.307Z,95282.35
2018-09-29T22:06:50.701Z,95282.46
2018-09-29T22:09:17.034Z,95279.25
2018-09-29T22:11:43.366Z,95278.55
2018-09-29T22:14:09.811Z,95284.69
2018-09-29T22:16:36.235Z,95288.05
2018-09-29T22:19:02.673Z,95283.78
2018-09-29T22:21:29.018Z,95284.39
2018-09-29T22:23:55.357Z,95289.11
2018-09-29T22:26:21.749Z,95284.43
2018-09-29T22:28:48.202Z,95286.20
2018-09-29T22:31:14.738Z,95284.43
2018-09-29T22:33:41.060Z,95291.86
2018-09-29T22:36:07.382Z,95294.05
2018-09-29T22:38:33.759Z,95297.03
2018-09-29T22:41:00.151Z,95301.19
2018-09-29T22:43:26.547Z,95298.73
2018-09-29T22:45:52.912Z,95302.77
2018-09-29T22:48:19.322Z,95310.31
2018-09-29T22:50:45.757Z,95304.73
2018-09-29T22:53:12.109Z,95301.94
2018-09-29T22:55:38.494Z,95309.67
2018-09-29T22:58:04.840Z,95310.88
2018-09-29T23:00:31.200Z,95316.77
2018-09-29T23:02:57.560Z,95320.69
2018-09-29T23:05:23.960Z,95318.57
2018-09-29T23:07:50.335Z,95314.39
2018-09-29T23:10:16.780Z,95312.80
2018-09-29T23:12:43.164Z,95311.48
2018-09-29T23:15:09.557Z,95312.28
2018-09-29T23:17:35.925Z,95309.71
2018-09-29T23:20:02.292Z,95316.20
2018-09-29T23:22:28.701Z,95308.25
2018-09-29T23:24:55.121Z,95307.88
2018-09-29T23:27:21.456Z,95310.89
2018-09-29T23:29:47.844Z,95311.64
2018-09-29T23:32:14.206Z,95309.94
2018-09-29T23:34:40.556Z,95310.92
2018-09-29T23:37:06.979Z,95313.91
2018-09-29T23:39:33.332Z,95314.89
2018-09-29T23:41:59.726Z,95309.64
2018-09-29T23:44:26.088Z,95309.30
2018-09-29T23:46:52.473Z,95306.17
2018-09-29T23:49:18.840Z,95307.27
2018-09-29T23:51:45.170Z,95306.28
2018-09-29T23:54:11.553Z,95306.28
2018-09-29T23:56:37.893Z,95316.24
2018-09-29T23:59:04.229Z,95317.08
